Time;durP1;ratioP1;P1;durP2;ratioP2;P2;SDS_P1;SDS_P2;PMS_P1;PMS_P2;Temp;Humidity;BMP_temperature;BMP_pressure;BME280_temperature;BME280_humidity;BME280_pressure;Samples;Min_cycle;Max_cycle;Signal;HPM_P1;HPM_P2
2020/12/30 00:04:53;;;;;;;3.67;2.67;;;;;;;1.58;100.00;96476.10;3588858;81;43719;-19
2020/12/30 00:10:00;;;;;;;3.80;2.57;;;;;;;1.59;100.00;96502.98;3611381;81;44062;-19
2020/12/30 00:15:07;;;;;;;4.37;3.00;;;;;;;1.39;100.00;96514.23;3553450;83;43151;-19
2020/12/30 00:20:16;;;;;;;5.43;4.20;;;;;;;1.20;100.00;96515.20;3582211;83;43680;-19
2020/12/30 00:25:22;;;;;;;5.43;3.50;;;;;;;1.08;100.00;96519.89;3568837;83;43024;-19
2020/12/30 00:30:27;;;;;;;6.57;3.27;;;;;;;1.07;100.00;96526.17;3582355;83;44055;-19
2020/12/30 00:35:34;;;;;;;4.60;3.33;;;;;;;1.12;100.00;96525.22;3581936;83;44055;-19
2020/12/30 00:40:40;;;;;;;5.00;3.27;;;;;;;1.26;100.00;96530.53;3582466;83;42913;-19
2020/12/30 00:45:46;;;;;;;3.93;2.90;;;;;;;1.30;100.00;96534.53;3581735;81;43387;-20
2020/12/30 00:50:51;;;;;;;4.57;3.23;;;;;;;1.35;100.00;96533.61;3629197;79;43649;-19
2020/12/30 00:55:58;;;;;;;5.07;3.00;;;;;;;1.41;100.00;96535.33;3676836;80;44058;-19
2020/12/30 01:01:06;;;;;;;4.27;3.20;;;;;;;1.46;100.00;96541.85;3678021;80;44540;-19
2020/12/30 01:06:16;;;;;;;5.60;2.87;;;;;;;1.48;100.00;96545.16;3674633;80;26385;-19
2020/12/30 01:11:28;;;;;;;4.40;3.27;;;;;;;1.50;100.00;96554.32;3707630;79;43005;-19
2020/12/30 01:16:34;;;;;;;4.33;2.83;;;;;;;1.42;100.00;96555.06;3595784;81;44078;-19
2020/12/30 01:21:43;;;;;;;5.20;3.20;;;;;;;1.35;100.00;96556.66;3647071;80;44097;-20
2020/12/30 01:26:49;;;;;;;4.73;3.10;;;;;;;1.18;100.00;96563.10;3646483;81;43179;-19
2020/12/30 01:31:54;;;;;;;4.73;3.17;;;;;;;1.16;100.00;96551.80;3582712;83;42971;-19
2020/12/30 01:37:00;;;;;;;5.37;3.27;;;;;;;1.17;100.00;96560.10;3583134;81;42831;-19
2020/12/30 01:42:06;;;;;;;5.60;2.80;;;;;;;1.10;100.00;96560.84;3594661;80;43291;-19
2020/12/30 01:47:12;;;;;;;4.60;3.13;;;;;;;1.04;100.00;96564.44;3707953;79;44080;-20
2020/12/30 01:52:19;;;;;;;5.97;3.00;;;;;;;0.94;100.00;96566.78;3586650;81;43685;-19
2020/12/30 01:57:25;;;;;;;4.43;3.30;;;;;;;0.89;100.00;96577.33;3647090;81;43466;-20
2020/12/30 02:02:31;;;;;;;3.33;3.03;;;;;;;0.75;100.00;96571.20;3605920;80;43682;-20
2020/12/30 02:07:38;;;;;;;8.00;3.47;;;;;;;0.68;100.00;96570.94;3707179;80;43728;-19
2020/12/30 02:12:45;;;;;;;9.00;4.30;;;;;;;0.65;100.00;96569.08;3645722;81;43133;-19
2020/12/30 02:17:52;;;;;;;5.20;3.50;;;;;;;0.56;100.00;96567.62;3646763;80;43295;-19
2020/12/30 02:23:01;;;;;;;7.23;3.73;;;;;;;0.60;100.00;96573.45;3600625;80;43383;-19
2020/12/30 02:28:06;;;;;;;7.23;3.70;;;;;;;0.57;100.00;96570.62;3522751;83;43685;-19
2020/12/30 02:33:13;;;;;;;5.93;3.93;;;;;;;0.53;100.00;96563.10;3602131;81;44107;-19
2020/12/30 02:38:20;;;;;;;5.63;3.60;;;;;;;0.51;100.00;96569.88;3646781;81;44052;-19
2020/12/30 02:43:27;;;;;;;6.07;3.90;;;;;;;0.50;100.00;96572.66;3646777;80;44517;-20
2020/12/30 02:48:32;;;;;;;5.90;4.07;;;;;;;0.65;100.00;96574.38;3577805;81;44087;-19
2020/12/30 02:53:38;;;;;;;6.07;4.03;;;;;;;0.71;100.00;96577.76;3610030;81;43420;-19
2020/12/30 02:58:44;;;;;;;6.03;4.10;;;;;;;0.75;100.00;96573.84;3577643;83;44034;-19
2020/12/30 03:03:50;;;;;;;6.10;4.20;;;;;;;0.69;100.00;96572.61;3612239;80;44085;-19
2020/12/30 03:08:56;;;;;;;4.90;3.50;;;;;;;0.60;100.00;96580.08;3560789;81;43280;-19
2020/12/30 03:14:02;;;;;;;5.87;3.90;;;;;;;0.56;100.00;96578.22;3555675;82;43712;-19
2020/12/30 03:19:08;;;;;;;7.27;4.03;;;;;;;0.55;100.00;96584.48;3624152;82;43100;-19
2020/12/30 03:24:14;;;;;;;6.33;4.13;;;;;;;0.49;100.00;96596.15;3694769;79;43352;-19
2020/12/30 03:29:20;;;;;;;5.30;4.10;;;;;;;0.52;100.00;96583.95;3695439;80;44050;-19
2020/12/30 03:34:26;;;;;;;6.27;4.17;;;;;;;0.57;100.00;96599.77;3695380;80;44088;-19
2020/12/30 03:39:32;;;;;;;6.40;4.07;;;;;;;0.63;100.00;96601.00;3683061;79;42677;-19
2020/12/30 03:44:37;;;;;;;6.33;4.20;;;;;;;0.78;100.00;96607.17;3694074;79;44105;-20
2020/12/30 03:49:43;;;;;;;6.53;4.10;;;;;;;0.78;100.00;96611.14;3695588;80;43314;-19
2020/12/30 03:54:49;;;;;;;5.17;3.93;;;;;;;0.84;100.00;96608.75;3695200;79;44063;-19
2020/12/30 03:59:55;;;;;;;6.03;4.33;;;;;;;0.94;100.00;96615.83;3694126;79;43404;-19
2020/12/30 04:05:01;;;;;;;6.10;4.17;;;;;;;0.95;100.00;96620.16;3695297;79;43762;-19
2020/12/30 04:10:07;;;;;;;6.97;4.33;;;;;;;1.03;100.00;96617.60;3710751;80;43669;-19
2020/12/30 04:15:14;;;;;;;6.17;4.63;;;;;;;1.05;100.00;96615.64;3683198;80;44526;-19
2020/12/30 04:20:20;;;;;;;6.50;4.77;;;;;;;1.13;100.00;96613.59;3707825;80;44039;-19
2020/12/30 04:25:26;;;;;;;7.33;4.90;;;;;;;1.17;100.00;96610.49;3594915;80;43722;-19
2020/12/30 04:30:31;;;;;;;5.60;4.17;;;;;;;1.22;100.00;96606.92;3571162;81;42947;-19
2020/12/30 04:35:37;;;;;;;6.97;4.60;;;;;;;1.25;100.00;96623.50;3638222;80;44014;-19
2020/12/30 04:40:44;;;;;;;7.23;4.60;;;;;;;1.29;100.00;96628.39;3544875;81;43379;-19
2020/12/30 04:45:50;;;;;;;5.83;4.33;;;;;;;1.34;100.00;96627.95;3586883;81;44036;-19
2020/12/30 04:50:56;;;;;;;6.00;4.30;;;;;;;1.37;100.00;96627.62;3648457;81;43323;-19
2020/12/30 04:56:04;;;;;;;4.60;3.57;;;;;;;1.42;100.00;96629.83;3701691;80;43309;-19
2020/12/30 05:01:13;;;;;;;8.43;4.53;;;;;;;1.44;100.00;96631.85;3696080;79;44116;-19
2020/12/30 05:06:20;;;;;;;6.27;4.00;;;;;;;1.47;100.00;96627.08;3706602;79;43091;-19
2020/12/30 05:11:28;;;;;;;8.17;3.73;;;;;;;1.42;100.00;96641.30;3702008;80;43413;-19
2020/12/30 05:16:34;;;;;;;7.17;3.83;;;;;;;1.38;100.00;96638.59;3701811;80;42942;-19
2020/12/30 05:21:41;;;;;;;6.40;3.83;;;;;;;1.46;100.00;96641.36;3701921;80;44689;-19
2020/12/30 05:26:48;;;;;;;5.67;3.90;;;;;;;1.44;100.00;96641.99;3699033;80;43568;-19
2020/12/30 05:31:55;;;;;;;7.23;4.00;;;;;;;1.37;100.00;96648.37;3700030;79;43350;-19
2020/12/30 05:37:01;;;;;;;6.47;3.77;;;;;;;1.41;100.00;96660.03;3695340;80;43354;-19
2020/12/30 05:42:13;;;;;;;6.40;4.40;;;;;;;1.30;100.00;96658.39;3599901;82;43393;-19
2020/12/30 05:47:20;;;;;;;5.70;4.00;;;;;;;1.20;100.00;96666.38;3624783;82;44022;-19
2020/12/30 05:52:28;;;;;;;8.27;4.10;;;;;;;1.17;100.00;96662.22;3556040;83;43994;-19
2020/12/30 05:57:35;;;;;;;6.37;3.53;;;;;;;1.10;100.00;96669.09;3702080;80;44024;-19
2020/12/30 06:02:42;;;;;;;7.73;4.03;;;;;;;1.03;100.00;96678.11;3630513;82;44468;-20
2020/12/30 06:07:48;;;;;;;6.20;4.00;;;;;;;0.95;100.00;96686.44;3625540;80;44028;-19
2020/12/30 06:12:58;;;;;;;6.43;4.17;;;;;;;0.85;100.00;96692.61;3651995;80;44006;-19
2020/12/30 06:18:05;;;;;;;6.27;4.03;;;;;;;0.76;100.00;96695.62;3678304;79;44022;-18
2020/12/30 06:23:13;;;;;;;6.13;3.80;;;;;;;0.69;100.00;96690.55;3677763;80;44002;-18
2020/12/30 06:28:21;;;;;;;7.53;4.37;;;;;;;0.68;100.00;96692.85;3678311;80;44928;-18
2020/12/30 06:33:28;;;;;;;6.90;4.20;;;;;;;0.70;100.00;96708.59;3679366;80;43480;-18
2020/12/30 06:38:33;;;;;;;6.27;4.10;;;;;;;0.67;100.00;96706.22;3663323;79;44094;-18
2020/12/30 06:43:41;;;;;;;7.17;4.33;;;;;;;0.68;100.00;96711.88;3678169;80;43451;-18
2020/12/30 06:48:57;;;;;;;8.50;4.40;;;;;;;0.65;100.00;96713.50;3678313;80;43821;-18
2020/12/30 06:54:05;;;;;;;6.50;4.47;;;;;;;0.57;100.00;96719.00;3676287;80;42898;-18
2020/12/30 06:59:16;;;;;;;7.93;4.87;;;;;;;0.58;100.00;96727.30;3678143;79;43576;-18
2020/12/30 07:04:22;;;;;;;6.27;4.00;;;;;;;0.53;100.00;96730.84;3679184;79;44093;-18
2020/12/30 07:09:32;;;;;;;6.13;3.97;;;;;;;0.50;100.00;96733.80;3665572;79;43414;-18
2020/12/30 07:14:39;;;;;;;7.30;3.83;;;;;;;0.61;100.00;96742.92;3672231;79;43464;-18
2020/12/30 07:19:46;;;;;;;6.80;3.80;;;;;;;0.65;100.00;96744.80;3677144;80;43447;-18
2020/12/30 07:24:53;;;;;;;8.07;4.13;;;;;;;0.68;100.00;96750.30;3677258;79;43550;-18
2020/12/30 07:29:59;;;;;;;5.43;3.57;;;;;;;0.56;100.00;96754.42;3678168;80;44035;-18
2020/12/30 07:35:08;;;;;;;7.10;3.57;;;;;;;0.63;100.00;96756.53;3678198;80;42714;-18
2020/12/30 07:40:14;;;;;;;7.90;3.67;;;;;;;0.61;100.00;96761.95;3701798;77;44094;-18
2020/12/30 07:45:21;;;;;;;7.03;3.80;;;;;;;0.62;100.00;96775.55;3700355;78;44049;-18
2020/12/30 07:50:27;;;;;;;6.73;4.33;;;;;;;0.68;100.00;96782.11;3714036;78;43296;-18
2020/12/30 07:55:34;;;;;;;7.33;4.00;;;;;;;0.76;100.00;96791.04;3713771;79;43677;-19
2020/12/30 08:00:42;;;;;;;6.73;4.17;;;;;;;0.89;100.00;96780.13;3713764;80;43681;-18
2020/12/30 08:05:51;;;;;;;6.63;4.07;;;;;;;1.05;100.00;96790.66;3713868;78;44085;-18
2020/12/30 08:10:58;;;;;;;5.23;3.80;;;;;;;1.14;100.00;96801.73;3721000;79;43978;-18
2020/12/30 08:16:05;;;;;;;7.77;4.40;;;;;;;1.30;100.00;96805.63;3595440;81;43692;-18
2020/12/30 08:21:13;;;;;;;8.63;4.13;;;;;;;1.38;100.00;96801.76;3666358;80;43721;-18
2020/12/30 08:26:19;;;;;;;7.87;4.57;;;;;;;1.39;100.00;96808.74;3670133;80;43735;-19
2020/12/30 08:31:28;;;;;;;6.23;4.17;;;;;;;1.44;100.00;96806.98;3668058;80;44588;-18
2020/12/30 08:36:37;;;;;;;6.67;4.50;;;;;;;1.54;100.00;96808.64;3594479;82;44119;-19
2020/12/30 08:41:46;;;;;;;7.77;4.00;;;;;;;1.56;100.00;96818.28;3669548;80;43310;-18
2020/12/30 08:46:55;;;;;;;6.53;3.83;;;;;;;1.62;100.00;96825.17;3595593;81;44049;-18
2020/12/30 08:52:17;;;;;;;6.33;4.00;;;;;;;1.63;100.00;96824.20;3695723;79;44026;-18
2020/12/30 08:57:23;;;;;;;7.40;4.40;;;;;;;1.63;100.00;96828.66;3673005;79;43322;-18
2020/12/30 09:02:29;;;;;;;6.53;4.57;;;;;;;1.72;100.00;96831.77;3672973;80;43337;-18
2020/12/30 09:07:35;;;;;;;6.27;4.50;;;;;;;1.73;100.00;96836.59;3667305;80;44849;-19
2020/12/30 09:12:42;;;;;;;7.53;4.20;;;;;;;1.77;100.00;96841.47;3695194;80;43077;-19
2020/12/30 09:17:52;;;;;;;6.03;4.60;;;;;;;1.84;100.00;96841.73;3639059;80;44016;-18
2020/12/30 09:23:01;;;;;;;7.90;5.03;;;;;;;1.96;100.00;96845.02;3723585;79;43349;-25
2020/12/30 09:28:16;;;;;;;7.20;5.00;;;;;;;1.99;100.00;96840.75;3722699;79;44090;-18
2020/12/30 09:33:24;;;;;;;6.57;4.60;;;;;;;2.12;100.00;96848.38;3706580;79;44018;-17
2020/12/30 09:38:30;;;;;;;6.40;4.57;;;;;;;2.27;100.00;96856.72;3719343;78;43785;-17
2020/12/30 09:43:38;;;;;;;8.23;5.17;;;;;;;2.43;100.00;96871.50;3636273;81;44551;-18
2020/12/30 09:48:44;;;;;;;6.80;5.07;;;;;;;2.51;100.00;96872.60;3703278;79;43721;-17
2020/12/30 09:53:51;;;;;;;7.07;5.27;;;;;;;2.63;100.00;96872.73;3701751;79;43435;-17
2020/12/30 09:58:59;;;;;;;6.67;5.00;;;;;;;2.73;100.00;96869.52;3702252;79;43026;-18
2020/12/30 10:04:06;;;;;;;6.90;5.07;;;;;;;2.81;100.00;96867.92;3713075;79;44037;-18
2020/12/30 10:09:12;;;;;;;7.17;4.83;;;;;;;3.12;100.00;96871.05;3731310;79;44023;-18
2020/12/30 10:14:21;;;;;;;6.80;5.03;;;;;;;3.26;100.00;96870.99;3735438;79;44050;-20
2020/12/30 10:19:28;;;;;;;6.40;4.83;;;;;;;3.37;100.00;96885.39;3720248;80;44042;-19
2020/12/30 10:24:34;;;;;;;6.47;5.10;;;;;;;3.42;100.00;96872.12;3743146;79;43686;-19
2020/12/30 10:29:40;;;;;;;6.23;4.67;;;;;;;3.38;100.00;96876.42;3731614;79;512563;-19
2020/12/30 10:34:48;;;;;;;8.10;5.37;;;;;;;3.41;100.00;96874.45;3748868;77;43473;-18
2020/12/30 10:39:54;;;;;;;7.00;4.63;;;;;;;3.33;100.00;96875.21;3756415;77;43131;-19
2020/12/30 10:44:59;;;;;;;8.43;5.00;;;;;;;3.40;100.00;96868.30;3811662;77;43725;-19
2020/12/30 10:50:06;;;;;;;10.27;5.33;;;;;;;3.42;100.00;96876.12;3748219;78;43535;-19
2020/12/30 10:55:12;;;;;;;9.23;5.87;;;;;;;3.47;100.00;96871.18;3788841;76;43991;-19
2020/12/30 11:00:18;;;;;;;8.20;5.77;;;;;;;3.52;100.00;96871.53;3748974;77;44087;-19
2020/12/30 11:05:25;;;;;;;7.70;5.27;;;;;;;3.70;100.00;96868.32;3751534;77;44071;-20
2020/12/30 11:10:31;;;;;;;5.80;4.30;;;;;;;3.66;100.00;96866.98;3750617;78;44025;-17
2020/12/30 11:15:37;;;;;;;5.87;4.47;;;;;;;3.73;100.00;96869.00;3759388;77;44388;-17
2020/12/30 11:20:44;;;;;;;15.07;6.07;;;;;;;3.78;100.00;96854.73;3707752;77;43694;-18
2020/12/30 11:25:51;;;;;;;6.00;4.40;;;;;;;3.84;100.00;96855.42;3755443;78;43297;-18
2020/12/30 11:30:57;;;;;;;7.37;4.67;;;;;;;3.80;100.00;96852.75;3703850;78;43392;-18
2020/12/30 11:36:04;;;;;;;5.53;4.00;;;;;;;3.87;100.00;96840.98;3702480;80;43459;-18
2020/12/30 11:41:12;;;;;;;5.67;3.50;;;;;;;3.98;100.00;96832.20;3717060;78;44565;-17
2020/12/30 11:46:20;;;;;;;6.17;4.20;;;;;;;4.00;100.00;96838.20;3749448;77;44875;-18
2020/12/30 11:51:26;;;;;;;6.23;4.23;;;;;;;4.07;100.00;96834.89;3707566;77;44042;-18
2020/12/30 11:56:33;;;;;;;8.17;4.07;;;;;;;4.11;100.00;96834.44;3700839;80;44003;-17
2020/12/30 12:01:39;;;;;;;4.97;4.00;;;;;;;4.17;100.00;96844.96;3744672;78;43685;-18
2020/12/30 12:06:44;;;;;;;5.83;3.80;;;;;;;4.12;100.00;96844.59;3703028;79;43969;-18
2020/12/30 12:11:51;;;;;;;4.80;3.83;;;;;;;3.93;100.00;96845.18;3727328;78;44048;-18
2020/12/30 12:16:58;;;;;;;4.80;3.80;;;;;;;3.75;100.00;96845.23;3740518;78;43452;-18
2020/12/30 12:22:04;;;;;;;6.43;4.27;;;;;;;3.72;100.00;96840.22;3730392;77;44108;-18
2020/12/30 12:27:11;;;;;;;4.80;3.70;;;;;;;3.78;100.00;96842.75;3736561;77;44061;-18
2020/12/30 12:32:20;;;;;;;5.80;3.63;;;;;;;3.76;100.00;96851.39;3704316;78;44596;-18
2020/12/30 12:37:27;;;;;;;4.87;3.60;;;;;;;3.76;100.00;96847.39;3701252;78;43646;-18
2020/12/30 12:42:34;;;;;;;5.30;3.87;;;;;;;3.81;100.00;96853.92;3699078;79;44048;-18
2020/12/30 12:47:42;;;;;;;5.00;3.67;;;;;;;3.81;100.00;96846.44;3650290;79;26446;-19
2020/12/30 12:52:48;;;;;;;5.23;3.43;;;;;;;4.05;100.00;96854.23;3741561;78;43443;-18
2020/12/30 12:57:55;;;;;;;4.70;2.83;;;;;;;4.37;100.00;96851.36;3724624;78;44167;-18
2020/12/30 13:03:01;;;;;;;40.40;22.17;;;;;;;4.39;100.00;96856.04;3717834;78;43674;-18
2020/12/30 13:08:07;;;;;;;4.73;3.40;;;;;;;4.48;100.00;96849.73;3700982;79;43314;-18
2020/12/30 13:13:13;;;;;;;4.70;2.80;;;;;;;4.33;100.00;96854.85;3746693;77;42960;-18
2020/12/30 13:18:19;;;;;;;4.67;2.83;;;;;;;4.22;100.00;96869.29;3721017;79;43977;-19
2020/12/30 13:23:26;;;;;;;3.10;2.60;;;;;;;4.19;100.00;96870.93;3745854;77;44089;-24
2020/12/30 13:28:34;;;;;;;4.23;2.80;;;;;;;4.23;100.00;96877.63;3717035;79;43637;-18
2020/12/30 13:33:41;;;;;;;3.57;2.83;;;;;;;4.04;100.00;96882.69;3745148;79;42793;-17
2020/12/30 13:38:47;;;;;;;4.33;2.60;;;;;;;3.89;100.00;96885.10;3707008;79;43685;-17
2020/12/30 13:43:55;;;;;;;3.23;2.70;;;;;;;3.90;100.00;96885.45;3752005;77;44796;-17
2020/12/30 13:49:01;;;;;;;3.00;2.40;;;;;;;3.94;100.00;96894.77;3713494;79;44057;-18
2020/12/30 13:54:08;;;;;;;3.40;2.67;;;;;;;3.96;100.00;96897.30;3710896;79;43434;-18
2020/12/30 13:59:15;;;;;;;5.37;3.00;;;;;;;3.98;100.00;96904.14;3705792;79;43373;-18
2020/12/30 14:04:22;;;;;;;3.77;2.60;;;;;;;4.07;100.00;96912.17;3756210;77;43433;-20
2020/12/30 14:09:28;;;;;;;3.10;2.30;;;;;;;4.05;100.00;96914.19;3707485;79;42961;-17
2020/12/30 14:14:34;;;;;;;2.27;1.90;;;;;;;3.90;100.00;96921.41;3748005;78;44083;-18
2020/12/30 14:19:41;;;;;;;2.90;1.93;;;;;;;3.95;100.00;96922.27;3718888;77;43447;-18
2020/12/30 14:24:48;;;;;;;2.53;2.00;;;;;;;3.96;100.00;96930.61;3818829;77;43718;-18
2020/12/30 14:29:54;;;;;;;2.93;2.03;;;;;;;3.88;100.00;96935.38;3772281;78;44069;-17
2020/12/30 14:35:00;;;;;;;3.47;2.40;;;;;;;3.88;100.00;96930.05;3823017;77;43437;-18
2020/12/30 14:40:07;;;;;;;2.87;2.40;;;;;;;3.90;100.00;96930.73;3771340;77;44130;-18
2020/12/30 14:45:13;;;;;;;3.17;2.60;;;;;;;3.86;100.00;96938.69;3771938;77;43046;-18
2020/12/30 14:50:19;;;;;;;2.50;2.30;;;;;;;3.82;100.00;96946.67;3772119;77;44050;-18
2020/12/30 14:55:25;;;;;;;2.70;2.20;;;;;;;3.81;100.00;96943.66;3719968;78;43697;-18
2020/12/30 15:00:31;;;;;;;3.43;2.50;;;;;;;3.70;100.00;96952.73;3773887;77;44103;-18
2020/12/30 15:05:37;;;;;;;4.07;2.83;;;;;;;3.66;100.00;96958.86;3820165;77;44079;-18
2020/12/30 15:10:43;;;;;;;3.63;2.87;;;;;;;3.62;100.00;96965.47;3772961;77;44026;-18
2020/12/30 15:15:49;;;;;;;2.83;2.37;;;;;;;3.61;100.00;96973.12;3772892;77;43348;-18
2020/12/30 15:20:54;;;;;;;2.57;2.30;;;;;;;3.60;100.00;96964.78;3779859;76;44100;-18
2020/12/30 15:26:03;;;;;;;2.80;2.50;;;;;;;3.52;100.00;96972.71;3813232;77;44061;-18
2020/12/30 15:31:11;;;;;;;4.37;3.40;;;;;;;3.44;100.00;96975.30;3782613;77;43407;-18
2020/12/30 15:36:17;;;;;;;4.67;3.63;;;;;;;3.54;100.00;96981.39;3814033;77;44006;-18
2020/12/30 15:41:25;;;;;;;5.43;3.30;;;;;;;3.51;100.00;96987.01;3785861;76;43352;-18
2020/12/30 15:46:30;;;;;;;4.30;3.47;;;;;;;3.46;100.00;96992.80;3775367;77;43492;-18
2020/12/30 15:51:36;;;;;;;4.10;3.37;;;;;;;3.43;100.00;97001.58;3776299;77;43449;-18
2020/12/30 15:56:48;;;;;;;4.67;3.40;;;;;;;3.45;100.00;97012.92;3769234;78;43499;-18
2020/12/30 16:01:54;;;;;;;4.70;3.63;;;;;;;3.41;100.00;97019.02;3792087;77;44018;-18
2020/12/30 16:07:00;;;;;;;3.83;3.37;;;;;;;3.41;100.00;97014.20;3809525;77;43372;-18
2020/12/30 16:12:06;;;;;;;5.13;4.03;;;;;;;3.37;100.00;97026.47;3789105;77;42860;-19
2020/12/30 16:17:12;;;;;;;3.80;2.80;;;;;;;3.37;100.00;97037.13;3733576;78;43636;-19
2020/12/30 16:22:18;;;;;;;5.20;3.83;;;;;;;3.36;100.00;97041.28;3742739;78;43682;-19
2020/12/30 16:27:25;;;;;;;6.07;3.60;;;;;;;3.35;100.00;97040.93;3742384;78;43452;-18
2020/12/30 16:32:33;;;;;;;5.67;3.57;;;;;;;3.34;100.00;97043.25;3711090;78;43500;-19
2020/12/30 16:37:39;;;;;;;6.83;3.67;;;;;;;3.27;100.00;97045.66;3710844;79;42972;-19
2020/12/30 16:42:45;;;;;;;5.80;4.00;;;;;;;3.27;100.00;97045.66;3747684;77;43993;-19
2020/12/30 16:47:52;;;;;;;5.70;4.40;;;;;;;3.24;100.00;97053.46;3761015;77;44033;-18
2020/12/30 16:52:59;;;;;;;5.77;4.27;;;;;;;3.22;100.00;97063.92;3756161;77;44018;-19
2020/12/30 16:58:05;;;;;;;5.13;4.10;;;;;;;3.26;100.00;97061.28;3742561;78;43983;-19
2020/12/30 17:03:11;;;;;;;8.13;4.23;;;;;;;3.28;100.00;97067.81;3738355;78;43948;-19
2020/12/30 17:08:17;;;;;;;6.07;3.57;;;;;;;3.22;100.00;97065.25;3713968;78;43686;-19
2020/12/30 17:13:22;;;;;;;5.67;3.67;;;;;;;3.26;100.00;97069.27;3757662;77;43389;-25
2020/12/30 17:18:28;;;;;;;5.33;4.13;;;;;;;3.19;100.00;97070.86;3723752;77;44796;-19
2020/12/30 17:23:33;;;;;;;5.20;3.90;;;;;;;3.22;100.00;97067.41;3747772;79;43401;-18
2020/12/30 17:28:39;;;;;;;5.90;4.00;;;;;;;3.17;100.00;97064.84;3627302;80;43698;-18
2020/12/30 17:33:45;;;;;;;4.80;3.60;;;;;;;3.15;100.00;97064.15;3759647;78;44046;-18
2020/12/30 17:38:51;;;;;;;5.30;3.70;;;;;;;3.14;100.00;97075.30;3722477;79;43713;-19
2020/12/30 17:43:57;;;;;;;5.70;3.93;;;;;;;3.10;100.00;97081.89;3542777;81;43719;-19
2020/12/30 17:49:03;;;;;;;7.40;4.67;;;;;;;3.05;100.00;97094.31;3706915;78;44407;-19
2020/12/30 17:54:09;;;;;;;11.10;6.07;;;;;;;3.02;100.00;97090.61;3711325;78;43663;-19
2020/12/30 17:59:16;;;;;;;6.00;5.00;;;;;;;2.97;100.00;97098.20;3706311;78;43771;-19
2020/12/30 18:04:25;;;;;;;5.23;3.90;;;;;;;2.92;100.00;97105.77;3705044;78;43424;-18
2020/12/30 18:09:33;;;;;;;4.70;3.73;;;;;;;2.86;100.00;97110.36;3706878;78;43686;-18
2020/12/30 18:14:39;;;;;;;4.67;3.40;;;;;;;2.78;100.00;97119.87;3727749;77;44879;-16
2020/12/30 18:19:45;;;;;;;5.03;3.73;;;;;;;2.78;100.00;97123.86;3777843;77;43519;-17
2020/12/30 18:24:51;;;;;;;5.47;3.63;;;;;;;2.77;100.00;97124.84;3770110;77;43416;-18
2020/12/30 18:29:57;;;;;;;4.60;3.83;;;;;;;2.73;100.00;97131.45;3766134;77;42921;-18
2020/12/30 18:35:05;;;;;;;4.73;3.63;;;;;;;2.75;100.00;97136.14;3767030;77;43468;-17
2020/12/30 18:40:12;;;;;;;5.80;4.30;;;;;;;2.74;100.00;97142.44;3702563;79;44451;-18
2020/12/30 18:45:19;;;;;;;5.40;3.87;;;;;;;2.75;100.00;97141.46;3703550;79;43944;-17
2020/12/30 18:50:26;;;;;;;5.87;4.10;;;;;;;2.77;100.00;97146.12;3766123;77;43707;-18
2020/12/30 18:55:32;;;;;;;5.13;4.27;;;;;;;2.82;100.00;97142.20;3765112;77;43298;-18
2020/12/30 19:00:38;;;;;;;4.43;3.33;;;;;;;2.87;100.00;97139.96;3766618;77;44593;-18
2020/12/30 19:05:44;;;;;;;5.50;3.10;;;;;;;2.89;100.00;97145.95;3730488;77;43764;-18
2020/12/30 19:10:50;;;;;;;5.33;3.77;;;;;;;2.90;100.00;97146.30;3634044;81;44090;-18
2020/12/30 19:15:57;;;;;;;7.00;4.60;;;;;;;2.93;100.00;97156.19;3610350;81;44086;-18
2020/12/30 19:21:03;;;;;;;6.60;4.60;;;;;;;2.96;100.00;97160.84;3591703;81;43707;-17
2020/12/30 19:26:13;;;;;;;7.07;5.23;;;;;;;2.98;100.00;97161.55;3665961;80;43341;-17
2020/12/30 19:31:23;;;;;;;7.30;5.53;;;;;;;2.92;100.00;97157.17;3585946;81;44164;-18
2020/12/30 19:36:32;;;;;;;7.40;4.70;;;;;;;2.88;100.00;97157.61;3553706;81;43322;-18
2020/12/30 19:41:38;;;;;;;5.53;4.20;;;;;;;2.85;100.00;97165.36;3590503;81;43544;-18
2020/12/30 19:46:44;;;;;;;4.90;3.70;;;;;;;2.75;100.00;97160.08;3646929;81;44119;-18
2020/12/30 19:51:50;;;;;;;5.40;3.80;;;;;;;2.70;100.00;97166.30;3561984;81;44087;-25
2020/12/30 19:56:56;;;;;;;5.67;3.77;;;;;;;2.65;100.00;97168.54;3662175;79;44016;-18
2020/12/30 20:02:01;;;;;;;5.43;3.87;;;;;;;2.65;100.00;97170.38;3572086;81;44081;-17
2020/12/30 20:07:07;;;;;;;5.20;3.43;;;;;;;2.51;100.00;97176.47;3560234;82;43718;-18
2020/12/30 20:12:14;;;;;;;5.00;3.50;;;;;;;2.51;100.00;97183.63;3596612;81;43749;-18
2020/12/30 20:17:20;;;;;;;4.63;3.67;;;;;;;2.40;100.00;97181.94;3645639;79;43703;-18
2020/12/30 20:22:27;;;;;;;4.30;3.20;;;;;;;2.25;100.00;97179.69;3638426;80;44091;-18
2020/12/30 20:27:34;;;;;;;5.50;3.57;;;;;;;2.10;100.00;97176.61;3605232;81;43198;-18
2020/12/30 20:32:40;;;;;;;4.07;3.23;;;;;;;2.00;100.00;97175.27;3635717;80;43389;-18
2020/12/30 20:37:46;;;;;;;4.60;3.20;;;;;;;1.89;100.00;97182.03;3633209;80;44071;-18
2020/12/30 20:42:52;;;;;;;4.57;3.33;;;;;;;1.77;100.00;97185.78;3636918;80;43326;-18
2020/12/30 20:47:58;;;;;;;5.97;3.37;;;;;;;1.62;100.00;97187.98;3604409;80;43696;-18
2020/12/30 20:53:04;;;;;;;6.00;3.70;;;;;;;1.54;100.00;97193.49;3624959;80;44052;-17
2020/12/30 20:58:11;;;;;;;4.50;3.20;;;;;;;1.64;100.00;97204.63;3636405;81;44041;-17
2020/12/30 21:03:16;;;;;;;5.37;4.07;;;;;;;1.59;100.00;97214.82;3635820;80;44015;-18
2020/12/30 21:08:23;;;;;;;6.03;4.20;;;;;;;1.53;100.00;97207.73;3631224;80;43217;-17
2020/12/30 21:13:29;;;;;;;6.27;4.27;;;;;;;1.46;100.00;97207.93;3635179;80;43352;-17
2020/12/30 21:18:35;;;;;;;5.77;4.10;;;;;;;1.40;100.00;97207.12;3624607;80;44205;-18
2020/12/30 21:23:41;;;;;;;7.10;4.37;;;;;;;1.36;100.00;97211.86;3568486;81;43345;-19
2020/12/30 21:28:46;;;;;;;5.83;3.70;;;;;;;1.23;100.00;97214.72;3658874;79;44066;-19
2020/12/30 21:33:54;;;;;;;7.90;3.80;;;;;;;1.12;100.00;97217.45;3593689;81;44516;-19
2020/12/30 21:38:59;;;;;;;5.93;3.67;;;;;;;1.18;100.00;97216.95;3622645;79;44511;-20
2020/12/30 21:44:05;;;;;;;5.70;3.70;;;;;;;1.16;100.00;97221.54;3535516;82;43945;-19
2020/12/30 21:49:11;;;;;;;6.97;3.67;;;;;;;1.17;100.00;97221.89;3607377;81;44017;-19
2020/12/30 21:54:17;;;;;;;5.43;3.70;;;;;;;1.12;100.00;97234.70;3653302;80;43707;-19
2020/12/30 21:59:24;;;;;;;5.27;3.90;;;;;;;1.13;100.00;97240.86;3619653;79;44011;-19
2020/12/30 22:04:29;;;;;;;4.83;3.50;;;;;;;1.16;100.00;97242.76;3673178;79;43318;-19
2020/12/30 22:09:36;;;;;;;6.23;3.90;;;;;;;1.11;100.00;97242.80;3580728;81;44050;-19
2020/12/30 22:14:41;;;;;;;6.40;3.90;;;;;;;1.04;100.00;97251.76;3664053;81;44466;-19
2020/12/30 22:19:49;;;;;;;6.70;4.27;;;;;;;1.03;100.00;97256.70;3625218;81;43264;-19
2020/12/30 22:24:56;;;;;;;6.40;4.50;;;;;;;0.97;100.00;97255.41;3634395;81;44524;-19
2020/12/30 22:30:01;;;;;;;5.93;4.30;;;;;;;0.94;100.00;97264.12;3634584;81;44052;-19
2020/12/30 22:35:07;;;;;;;5.70;4.07;;;;;;;0.95;100.00;97259.17;3634444;81;44251;-19
2020/12/30 22:40:13;;;;;;;6.30;4.10;;;;;;;0.96;100.00;97260.36;3586593;80;44067;-19
2020/12/30 22:45:19;;;;;;;6.53;4.30;;;;;;;0.95;100.00;97263.98;3577570;81;44052;-17
2020/12/30 22:50:25;;;;;;;5.60;3.60;;;;;;;1.00;100.00;97264.95;3654306;80;43101;-17
2020/12/30 22:55:31;;;;;;;7.03;3.90;;;;;;;1.07;100.00;97264.27;3691886;80;43431;-17
2020/12/30 23:00:37;;;;;;;4.37;3.30;;;;;;;1.09;100.00;97257.53;3634622;80;44477;-17
2020/12/30 23:05:43;;;;;;;6.77;3.73;;;;;;;1.11;100.00;97262.22;3579625;81;43384;-16
2020/12/30 23:10:50;;;;;;;4.83;3.53;;;;;;;1.13;100.00;97262.08;3577750;83;44061;-17
2020/12/30 23:15:56;;;;;;;5.63;3.97;;;;;;;1.13;100.00;97265.56;3660569;80;44523;-17
2020/12/30 23:21:02;;;;;;;4.70;2.97;;;;;;;1.15;100.00;97262.30;3573239;81;43377;-17
2020/12/30 23:26:07;;;;;;;3.80;3.17;;;;;;;1.23;100.00;97262.47;3637018;80;43946;-16
2020/12/30 23:31:13;;;;;;;5.10;3.43;;;;;;;1.26;100.00;97264.52;3594421;82;42922;-17
2020/12/30 23:36:19;;;;;;;3.67;3.13;;;;;;;1.26;100.00;97269.82;3659531;80;43351;-17
2020/12/30 23:41:26;;;;;;;4.43;3.00;;;;;;;1.18;100.00;97267.34;3535629;82;43731;-17
2020/12/30 23:46:31;;;;;;;4.50;3.17;;;;;;;1.18;100.00;97270.00;3625306;79;43299;-16
2020/12/30 23:51:37;;;;;;;5.27;3.40;;;;;;;1.15;100.00;97268.93;3553194;81;43393;-17
2020/12/30 23:56:44;;;;;;;4.03;2.90;;;;;;;1.21;100.00;97269.75;3642045;80;43021;-16
